Stations météo

Publicité
Chamonix, France (7469): Température de l'air & dewpoint: 18.01.2021 07:00:00 - 24.01.2021 07:00:00 (CET)Chamonix, France (7469): Vitesse du vent & gusts: 18.01.2021 07:00:00 - 24.01.2021 07:00:00 (CET)Chamonix, France (7469): Direction du vent: 18.01.2021 07:00:00 - 24.01.2021 07:00:00 (CET)Chamonix, France (7469): Quantités de précipitations: 18.01.2021 07:00:00 - 24.01.2021 07:00:00 (CET)
Date & Time tt [°C] td [°C] ff [km/h] ff [knt] fx [km/h] fx [knt] dd rr [mm]
24.01.2021 07:00:00 - - - - - - - -
24.01.2021 06:00:00 -1,5 -1,8 0 0 3 2 N 0,0
24.01.2021 05:00:00 -1,5 -1,6 0 0 4 2 N 0,0
24.01.2021 04:00:00 -1,8 -2,1 2 1 6 4 NNW 0,0
24.01.2021 03:00:00 -1,1 -1,7 0 0 16 9 N 0,0
24.01.2021 02:00:00 -0,6 -1,4 4 2 14 7 WSW 0,0
24.01.2021 01:00:00 -1,0 -1,6 3 1 15 8 NNW 0,0
24.01.2021 00:00:00 -0,5 -0,9 5 3 21 12 SW 0,2
23.01.2021 23:00:00 -1,3 -1,4 3 2 10 5 E 0,0
23.01.2021 22:00:00 -1,5 -1,6 0 0 11 6 N 0,0
23.01.2021 21:00:00 -1,8 -1,9 3 2 8 5 N 0,0
23.01.2021 20:00:00 -1,7 -1,8 3 1 9 5 N 0,0
23.01.2021 19:00:00 -1,9 -2,3 3 2 8 4 W 0,0
23.01.2021 18:00:00 -1,7 -2,1 3 1 9 5 N 0,0
23.01.2021 17:00:00 -1,4 -2,0 0 0 8 4 N 0,2
23.01.2021 16:00:00 -1,2 -1,8 2 1 7 4 SSW 0,6
23.01.2021 15:00:00 -0,6 -2,0 3 2 6 4 N 0,0
23.01.2021 14:00:00 -0,5 -1,8 3 1 8 4 NNE 0,0
23.01.2021 13:00:00 -0,5 -2,4 0 0 7 4 N 0,0
23.01.2021 12:00:00 -3,3 -3,8 3 1 7 4 N 0,0
23.01.2021 11:00:00 -3,6 -4,1 2 1 6 3 E 0,0
23.01.2021 10:00:00 -2,7 -3,2 2 1 8 4 E 0,0
23.01.2021 09:00:00 -3,2 -3,6 2 1 15 8 NE 0,0
23.01.2021 08:00:00 -3,4 -3,8 0 0 7 4 N 0,0
23.01.2021 07:00:00 -3,1 -3,5 0 0 5 3 N 0,0
23.01.2021 06:00:00 -2,2 -2,8 4 2 15 8 WSW 0,0
23.01.2021 05:00:00 -2,0 -2,7 4 2 11 6 SSW 0,0
23.01.2021 04:00:00 -1,9 -2,6 4 2 17 9 WSW 0,0
23.01.2021 03:00:00 -1,5 -2,2 5 3 23 13 SW 0,0
23.01.2021 02:00:00 -1,2 -1,9 6 4 22 12 SW 0,0
23.01.2021 01:00:00 -0,5 -1,6 7 4 26 14 SSW 0,0
23.01.2021 00:00:00 -0,2 -0,8 10 5 34 18 S 1,6
22.01.2021 23:00:00 0,6 0,0 8 4 27 15 SSW 1,0
22.01.2021 22:00:00 0,2 0,1 2 1 9 5 S 2,0
22.01.2021 21:00:00 0,5 -0,1 0 0 13 7 N 3,6
22.01.2021 20:00:00 1,6 1,3 7 4 16 8 S 0,0
22.01.2021 19:00:00 1,2 0,5 3 2 8 4 NE 0,0
22.01.2021 18:00:00 2,6 -0,2 3 2 13 7 NE 0,0
22.01.2021 17:00:00 5,5 -1,4 4 2 30 16 W 0,0
22.01.2021 16:00:00 5,9 -1,7 10 5 35 19 NNE 0,0
22.01.2021 15:00:00 6,2 -1,5 7 4 42 23 NE 0,0
22.01.2021 14:00:00 5,6 -0,9 11 6 46 25 NE 0,0
22.01.2021 13:00:00 5,4 -0,7 9 5 54 29 ENE 0,0
22.01.2021 12:00:00 4,8 -0,2 11 6 54 29 NNE 0,0
22.01.2021 11:00:00 3,8 0,1 8 4 42 23 ENE 0,0
22.01.2021 10:00:00 2,9 0,8 9 5 35 19 NE 0,0
22.01.2021 09:00:00 0,9 0,9 5 3 15 8 E 0,0
22.01.2021 08:00:00 -0,1 -0,1 4 2 11 6 N 0,0
22.01.2021 07:00:00 0,0 0,0 4 2 8 4 N 0,0
22.01.2021 06:00:00 0,3 0,3 2 1 9 5 NE 0,0
22.01.2021 05:00:00 0,5 0,5 2 1 9 5 E 1,0
22.01.2021 04:00:00 0,7 0,7 2 1 11 6 SSE 1,0
22.01.2021 03:00:00 0,6 0,6 6 3 12 7 NW 0,4
22.01.2021 02:00:00 0,3 0,3 2 1 9 5 ENE 0,2
22.01.2021 01:00:00 0,3 0,2 3 2 10 5 NE 0,0
22.01.2021 00:00:00 0,7 0,4 3 2 14 8 ESE 0,0
21.01.2021 23:00:00 1,1 0,8 5 3 17 9 WNW 0,4
21.01.2021 22:00:00 0,6 0,0 3 1 8 4 NNE 0,0
21.01.2021 21:00:00 0,3 -0,3 3 2 11 6 E 0,0
21.01.2021 20:00:00 0,5 -0,6 4 2 14 7 N 0,0
21.01.2021 19:00:00 0,0 -0,9 3 2 11 6 NNW 0,0
21.01.2021 18:00:00 0,9 -0,7 3 2 9 5 SSW 0,0
21.01.2021 17:00:00 1,8 0,0 3 1 7 4 W 0,0
21.01.2021 16:00:00 4,2 0,7 2 1 16 9 W 0,0
21.01.2021 15:00:00 5,3 1,0 2 1 22 12 NE 0,0
21.01.2021 14:00:00 7,0 -2,2 5 3 17 9 NE 0,0
21.01.2021 13:00:00 5,9 -2,2 4 2 24 13 NE 0,0
21.01.2021 12:00:00 5,3 -2,8 4 2 26 14 ENE 0,0
21.01.2021 11:00:00 4,8 -3,0 5 3 33 18 ENE 0,0
21.01.2021 10:00:00 3,8 -3,3 6 3 39 21 ENE 0,0
21.01.2021 09:00:00 3,2 -3,2 8 4 29 16 NNE 0,0
21.01.2021 08:00:00 2,9 -3,5 7 4 40 22 ENE 0,0
21.01.2021 07:00:00 3,1 -3,1 7 4 33 18 ENE 0,0
21.01.2021 06:00:00 0,0 -2,5 4 2 19 11 E 0,0
21.01.2021 05:00:00 0,4 -2,3 3 2 11 6 WSW 0,0
21.01.2021 04:00:00 2,3 -4,7 3 1 23 13 NNE 0,0
21.01.2021 03:00:00 2,7 -4,5 5 3 25 13 NNE 0,0
21.01.2021 02:00:00 2,7 -5,0 7 4 35 19 E 0,0
21.01.2021 01:00:00 2,6 -4,6 10 6 50 27 NNE 0,0
21.01.2021 00:00:00 2,6 -5,1 10 6 42 23 ENE 0,0
20.01.2021 23:00:00 2,4 -5,0 10 5 53 29 NE 0,0
20.01.2021 22:00:00 2,5 -4,9 17 9 62 33 NNE 0,0
20.01.2021 21:00:00 2,6 -4,8 18 10 58 31 NE 0,0
20.01.2021 20:00:00 2,6 -4,8 13 7 63 34 NE 0,0
20.01.2021 19:00:00 2,6 -5,1 11 6 53 29 NE 0,0
20.01.2021 18:00:00 2,7 -5,0 11 6 41 22 NNE 0,0
20.01.2021 17:00:00 2,6 -4,4 8 5 38 21 NE 0,0
20.01.2021 16:00:00 2,8 -4,0 5 3 28 15 E 0,0
20.01.2021 15:00:00 3,8 -1,2 5 3 22 12 E 0,0
20.01.2021 14:00:00 3,7 -2,9 5 3 28 15 ENE 0,0
20.01.2021 13:00:00 2,8 -0,8 4 2 14 8 E 0,0
20.01.2021 12:00:00 -2,0 -2,3 3 2 11 6 S 0,0
20.01.2021 11:00:00 -5,1 -5,6 0 0 9 5 N 0,0
20.01.2021 10:00:00 -8,3 -9,0 2 1 8 4 N 0,0
20.01.2021 09:00:00 -11,1 -12,0 3 1 7 4 NNW 0,0
20.01.2021 08:00:00 -12,0 -13,3 2 1 9 5 ESE 0,0
20.01.2021 07:00:00 -11,6 -12,6 4 2 10 5 E 0,0
20.01.2021 06:00:00 -11,5 -12,8 2 1 6 4 N 0,0
20.01.2021 05:00:00 -11,0 -12,2 2 1 10 5 NNE 0,0
20.01.2021 04:00:00 -11,0 -12,3 0 0 9 5 N 0,0
20.01.2021 03:00:00 -10,6 -11,8 0 0 8 5 N 0,0
20.01.2021 02:00:00 -10,3 -11,5 3 1 9 5 E 0,0
20.01.2021 01:00:00 -9,6 -10,7 2 1 9 5 N 0,0
20.01.2021 00:00:00 -9,3 -10,5 0 0 9 5 N 0,0
19.01.2021 23:00:00 -8,5 -9,4 3 2 9 5 NE 0,0
19.01.2021 22:00:00 -7,7 -8,6 0 0 5 3 N 0,0
19.01.2021 21:00:00 -7,1 -8,2 3 1 8 5 ENE 0,0
19.01.2021 20:00:00 -6,1 -6,9 2 1 8 4 NW 0,0
19.01.2021 19:00:00 -4,7 -5,1 3 2 8 5 NNE 0,0
19.01.2021 18:00:00 -3,9 -4,6 0 0 4 2 N 0,0
19.01.2021 17:00:00 -1,4 -2,8 0 0 5 3 N 0,0
19.01.2021 16:00:00 0,5 -1,6 2 1 5 3 E 0,0
19.01.2021 15:00:00 2,5 -0,8 0 0 5 3 N 0,0
19.01.2021 14:00:00 0,9 -1,8 0 0 5 3 N 0,0
19.01.2021 13:00:00 -5,2 -6,7 2 1 6 4 ESE 0,0
19.01.2021 12:00:00 -11,0 -12,2 0 0 6 3 N 0,0
19.01.2021 11:00:00 -11,8 -13,1 0 0 5 3 N 0,0
19.01.2021 10:00:00 -12,6 -13,9 2 1 7 4 NNE 0,0
19.01.2021 09:00:00 -13,2 -14,5 2 1 6 3 ENE 0,0
19.01.2021 08:00:00 -13,9 -15,5 2 1 8 5 W 0,0
19.01.2021 07:00:00 -13,8 -15,2 0 0 6 3 N 0,0
19.01.2021 06:00:00 -13,7 -15,1 2 1 7 4 ENE 0,0
19.01.2021 05:00:00 -13,6 -15,2 0 0 6 3 N 0,0
19.01.2021 04:00:00 -13,4 -14,8 0 0 5 3 N 0,0
19.01.2021 03:00:00 -12,9 -14,2 2 1 8 5 NW 0,0
19.01.2021 02:00:00 -12,5 -13,9 3 2 8 4 ENE 0,0
19.01.2021 01:00:00 -12,0 -13,3 2 1 7 4 E 0,0
19.01.2021 00:00:00 -11,8 -13,4 3 2 6 3 ENE 0,0
18.01.2021 23:00:00 -10,9 -12,2 0 0 5 3 N 0,0
18.01.2021 22:00:00 -10,1 -11,4 0 0 6 3 N 0,0
18.01.2021 21:00:00 -9,2 -10,1 3 1 8 4 NNE 0,0
18.01.2021 20:00:00 -8,4 -9,5 0 0 5 3 N 0,0
18.01.2021 19:00:00 -7,2 -8,1 0 0 6 3 N 0,0
18.01.2021 18:00:00 -5,9 -6,7 0 0 6 4 N 0,0
18.01.2021 17:00:00 -3,6 -5,5 2 1 7 4 E 0,0
18.01.2021 16:00:00 -2,1 -4,4 0 0 6 3 N 0,0
18.01.2021 15:00:00 2,6 -4,8 0 0 5 3 N 0,0
18.01.2021 14:00:00 0,7 -5,1 0 0 8 4 N 0,0
18.01.2021 13:00:00 -3,7 -6,2 2 1 5 3 SE 0,0
18.01.2021 12:00:00 -11,0 -12,2 4 2 10 5 E 0,0
18.01.2021 11:00:00 -11,3 -12,3 4 2 8 5 ESE 0,0
18.01.2021 10:00:00 -11,8 -13,1 3 1 6 3 NNE 0,0
18.01.2021 09:00:00 -12,0 -13,2 3 1 7 4 NNW 0,0
18.01.2021 08:00:00 -11,6 -12,8 2 1 8 4 NE 0,0
18.01.2021 07:00:00 -11,1 -12,3 4 2 9 5 N 0,0

tt = Température de l'air
td = dewpoint
ff = Vitesse du vent
fx = gusts
dd = Direction du vent
rr = Quantités de précipitations

stations d'obs. à proximité